Sunday, April 22, 2018, 1:52 PM EDT

KMUI, Muir Army Air Field / Indiantown

Location: Jonestown, PA, United States Lat: 40.433
Local Time: 1:52 PM EDT (17:52 GMT) Lon: -76.567
Time Zone: US/Eastern Elev: 488 ft

Show me the last for .
Show Decoded

2018-04-22 12:56 METAR KMUI 221656Z AUTO 17007KT 10SM FEW130 FEW170 SCT190 16/M06 A3039 RMK AO2
                 SLP295 T01571060 $ =
2018-04-22 11:56 METAR KMUI 221556Z AUTO 11005KT 10SM CLR 15/M07 A3041 RMK AO2 SLP302 T01521070 $
                 =
2018-04-22 10:56 METAR KMUI 221456Z AUTO 16005KT 10SM CLR 14/M08 A3043 RMK AO2 SLP309 T01371077
                 50000 $ =
2018-04-22 09:56 METAR KMUI 221356Z AUTO 00000KT 10SM CLR 12/M06 A3043 RMK AO2 SLP309 T01211064 $
                 =
2018-04-22 08:56 METAR KMUI 221256Z AUTO 13003KT 10SM CLR 11/M06 A3044 RMK AO2 SLP312 T01051064 $
                 =
2018-04-22 07:56 METAR KMUI 221156Z AUTO 00000KT 10SM CLR 06/01 A3042 RMK AO2 SLP306 T00630012
                 10063 20007 52011 $ =
2018-04-22 06:56 METAR KMUI 221056Z AUTO 00000KT 9SM CLR 01/00 A3042 RMK AO2 SLP307 T00101003 $ =
2018-04-22 05:56 METAR KMUI 220956Z AUTO 00000KT 10SM CLR 02/M02 A3040 RMK AO2 SLP300 T00241025 $
                 =
2018-04-22 04:56 METAR KMUI 220856Z AUTO 36004KT 10SM CLR 03/00 A3039 RMK AO2 SLP296 T00251004
                 53001 $ =
2018-04-22 03:56 METAR KMUI 220756Z AUTO 00000KT 10SM CLR 04/M01 A3038 RMK AO2 SLP292 T00421012 $
                 =
2018-04-22 02:56 METAR KMUI 220656Z AUTO 04003KT 10SM CLR 04/01 A3038 RMK AO2 SLP293 T00360008 $
                 =
2018-04-22 01:56 METAR KMUI 220556Z AUTO 00000KT 4SM HZ FEW180 05/M01 A3039 RMK AO2 SLP296
                 T00531010 10138 20045 52012 $ =
2018-04-22 00:56 METAR KMUI 220456Z AUTO 00000KT 10SM OVC170 06/00 A3038 RMK AO2 SLP293 T00621001
                 401551018 $ =
2018-04-21 23:56 METAR KMUI 220356Z AUTO 00000KT 10SM CLR 07/00 A3037 RMK AO2 SLP289 T00730000 $
                 =
2018-04-21 22:56 METAR KMUI 220256Z AUTO 00000KT 5SM HZ CLR 07/02 A3036 RMK AO2 SLP286 T00720021
                 52009 $ =
2018-04-21 21:56 METAR KMUI 220156Z AUTO 00000KT 10SM CLR 11/00 A3035 RMK AO2 SLP282 T01061002 $
                 =
2018-04-21 20:56 METAR KMUI 220056Z AUTO 00000KT 10SM CLR 11/M03 A3034 RMK AO2 SLP279 T01121030 $
                 =
2018-04-21 19:56 METAR KMUI 212356Z AUTO 00000KT 10SM CLR 14/M04 A3033 RMK AO2 SLP276 T01391043
                 10155 20132 53002 $ =
2018-04-21 18:56 METAR KMUI 212256Z AUTO 30006KT 10SM CLR 15/M05 A3031 RMK AO2 SLP270 T01451048 $
                 =
2018-04-21 17:56 METAR KMUI 212156Z AUTO 26004KT 10SM CLR 15/M04 A3032 RMK AO2 SLP273 T01471041 $
                 =
2018-04-21 16:56 METAR KMUI 212056Z AUTO 36005KT 10SM CLR 15/M05 A3032 RMK AO2 SLP273 T01491050
                 57016 $ =
2018-04-21 15:56 METAR KMUI 211956Z AUTO 01005KT 10SM CLR 15/M05 A3033 RMK AO2 SLP276 T01521047 $
                 =
2018-04-21 14:56 METAR KMUI 211856Z AUTO 00000KT 10SM CLR 15/M06 A3035 RMK AO2 SLP282 T01451058 $
                 =
2018-04-21 13:56 METAR KMUI 211756Z AUTO 13004KT 10SM CLR 14/M05 A3037 RMK AO2 SLP290 T01351051
                 10139 20032 57028 $ =

Support USWX by starting your Amazon purchase here.